sensor_id;sensor_type;location;lat;lon;timestamp;P1;durP1;ratioP1;P2;durP2;ratioP2
18443;SDS011;9350;53.176;8.194;2023-01-15T00:01:23;6.85;;;1.33;;
18443;SDS011;9350;53.176;8.194;2023-01-15T00:03:52;8.18;;;1.13;;
18443;SDS011;9350;53.176;8.194;2023-01-15T00:06:20;6.95;;;1.70;;
18443;SDS011;9350;53.176;8.194;2023-01-15T00:08:48;3.80;;;1.02;;
18443;SDS011;9350;53.176;8.194;2023-01-15T00:11:16;3.97;;;1.00;;
18443;SDS011;9350;53.176;8.194;2023-01-15T00:13:44;10.20;;;1.20;;
18443;SDS011;9350;53.176;8.194;2023-01-15T00:16:11;2.92;;;1.15;;
18443;SDS011;9350;53.176;8.194;2023-01-15T00:18:40;6.43;;;1.40;;
18443;SDS011;9350;53.176;8.194;2023-01-15T00:21:09;1.10;;;1.00;;
18443;SDS011;9350;53.176;8.194;2023-01-15T00:23:37;8.75;;;1.30;;
18443;SDS011;9350;53.176;8.194;2023-01-15T00:26:23;3.80;;;1.20;;
18443;SDS011;9350;53.176;8.194;2023-01-15T00:29:06;5.90;;;1.30;;
18443;SDS011;9350;53.176;8.194;2023-01-15T00:31:33;5.53;;;1.30;;
18443;SDS011;9350;53.176;8.194;2023-01-15T00:34:01;7.68;;;1.40;;
18443;SDS011;9350;53.176;8.194;2023-01-15T00:36:29;8.43;;;1.63;;
18443;SDS011;9350;53.176;8.194;2023-01-15T00:38:57;3.13;;;1.27;;
18443;SDS011;9350;53.176;8.194;2023-01-15T00:41:24;7.63;;;1.38;;
18443;SDS011;9350;53.176;8.194;2023-01-15T00:43:51;7.88;;;1.27;;
18443;SDS011;9350;53.176;8.194;2023-01-15T00:46:18;6.65;;;1.38;;
18443;SDS011;9350;53.176;8.194;2023-01-15T00:48:45;4.60;;;1.45;;
18443;SDS011;9350;53.176;8.194;2023-01-15T00:51:11;5.35;;;1.20;;
18443;SDS011;9350;53.176;8.194;2023-01-15T00:53:39;7.38;;;1.10;;
18443;SDS011;9350;53.176;8.194;2023-01-15T00:56:06;6.80;;;1.20;;
18443;SDS011;9350;53.176;8.194;2023-01-15T00:58:33;5.60;;;1.40;;
18443;SDS011;9350;53.176;8.194;2023-01-15T01:01:00;7.78;;;1.40;;
18443;SDS011;9350;53.176;8.194;2023-01-15T01:03:26;6.82;;;1.10;;
18443;SDS011;9350;53.176;8.194;2023-01-15T01:05:58;3.08;;;1.23;;
18443;SDS011;9350;53.176;8.194;2023-01-15T01:08:26;12.13;;;1.35;;
18443;SDS011;9350;53.176;8.194;2023-01-15T01:11:01;6.25;;;1.20;;
18443;SDS011;9350;53.176;8.194;2023-01-15T01:13:29;9.70;;;1.65;;
18443;SDS011;9350;53.176;8.194;2023-01-15T01:15:56;3.30;;;1.10;;
18443;SDS011;9350;53.176;8.194;2023-01-15T01:18:22;7.57;;;1.08;;
18443;SDS011;9350;53.176;8.194;2023-01-15T01:20:49;6.97;;;1.50;;
18443;SDS011;9350;53.176;8.194;2023-01-15T01:23:16;7.45;;;1.67;;
18443;SDS011;9350;53.176;8.194;2023-01-15T01:25:44;9.65;;;1.17;;
18443;SDS011;9350;53.176;8.194;2023-01-15T01:28:12;4.50;;;1.00;;
18443;SDS011;9350;53.176;8.194;2023-01-15T01:30:39;5.70;;;1.10;;
18443;SDS011;9350;53.176;8.194;2023-01-15T01:33:06;6.25;;;1.23;;
18443;SDS011;9350;53.176;8.194;2023-01-15T01:35:32;6.43;;;1.48;;
18443;SDS011;9350;53.176;8.194;2023-01-15T01:37:59;5.05;;;1.42;;
18443;SDS011;9350;53.176;8.194;2023-01-15T01:40:26;7.65;;;1.05;;
18443;SDS011;9350;53.176;8.194;2023-01-15T01:42:53;10.18;;;1.40;;
18443;SDS011;9350;53.176;8.194;2023-01-15T01:45:23;3.80;;;1.30;;
18443;SDS011;9350;53.176;8.194;2023-01-15T01:47:52;5.15;;;1.30;;
18443;SDS011;9350;53.176;8.194;2023-01-15T01:50:20;10.93;;;1.50;;
18443;SDS011;9350;53.176;8.194;2023-01-15T01:52:48;7.80;;;1.85;;
18443;SDS011;9350;53.176;8.194;2023-01-15T01:55:19;7.03;;;1.52;;
18443;SDS011;9350;53.176;8.194;2023-01-15T01:57:48;6.97;;;1.38;;
18443;SDS011;9350;53.176;8.194;2023-01-15T02:00:19;6.78;;;1.42;;
18443;SDS011;9350;53.176;8.194;2023-01-15T02:02:49;5.70;;;1.38;;
18443;SDS011;9350;53.176;8.194;2023-01-15T02:05:20;8.60;;;1.95;;
18443;SDS011;9350;53.176;8.194;2023-01-15T02:07:53;7.93;;;1.67;;
18443;SDS011;9350;53.176;8.194;2023-01-15T02:10:20;6.07;;;1.30;;
18443;SDS011;9350;53.176;8.194;2023-01-15T02:12:48;10.35;;;1.80;;
18443;SDS011;9350;53.176;8.194;2023-01-15T02:15:25;11.07;;;1.30;;
18443;SDS011;9350;53.176;8.194;2023-01-15T02:17:59;6.78;;;1.48;;
18443;SDS011;9350;53.176;8.194;2023-01-15T02:20:31;5.38;;;1.50;;
18443;SDS011;9350;53.176;8.194;2023-01-15T02:23:06;4.35;;;1.27;;
18443;SDS011;9350;53.176;8.194;2023-01-15T02:26:01;8.57;;;1.58;;
18443;SDS011;9350;53.176;8.194;2023-01-15T02:28:46;9.70;;;1.80;;
18443;SDS011;9350;53.176;8.194;2023-01-15T02:31:17;5.05;;;1.42;;
18443;SDS011;9350;53.176;8.194;2023-01-15T02:33:50;9.68;;;1.30;;
18443;SDS011;9350;53.176;8.194;2023-01-15T02:36:23;8.30;;;1.63;;
18443;SDS011;9350;53.176;8.194;2023-01-15T02:38:54;6.00;;;1.50;;
18443;SDS011;9350;53.176;8.194;2023-01-15T02:41:25;12.43;;;2.03;;
18443;SDS011;9350;53.176;8.194;2023-01-15T02:43:56;3.85;;;1.25;;
18443;SDS011;9350;53.176;8.194;2023-01-15T02:46:27;11.00;;;1.80;;
18443;SDS011;9350;53.176;8.194;2023-01-15T02:48:57;6.05;;;1.35;;
18443;SDS011;9350;53.176;8.194;2023-01-15T02:51:27;13.73;;;1.75;;
18443;SDS011;9350;53.176;8.194;2023-01-15T02:53:59;5.65;;;1.40;;
18443;SDS011;9350;53.176;8.194;2023-01-15T02:56:29;9.05;;;1.50;;
18443;SDS011;9350;53.176;8.194;2023-01-15T02:59:03;6.07;;;1.35;;
18443;SDS011;9350;53.176;8.194;2023-01-15T03:01:33;6.90;;;1.40;;
18443;SDS011;9350;53.176;8.194;2023-01-15T03:04:06;6.30;;;1.52;;
18443;SDS011;9350;53.176;8.194;2023-01-15T03:06:42;5.63;;;1.27;;
18443;SDS011;9350;53.176;8.194;2023-01-15T03:09:11;7.32;;;1.83;;
18443;SDS011;9350;53.176;8.194;2023-01-15T03:11:41;7.43;;;1.50;;
18443;SDS011;9350;53.176;8.194;2023-01-15T03:14:15;6.63;;;1.60;;
18443;SDS011;9350;53.176;8.194;2023-01-15T03:16:46;9.40;;;1.60;;
18443;SDS011;9350;53.176;8.194;2023-01-15T03:19:19;11.13;;;1.83;;
18443;SDS011;9350;53.176;8.194;2023-01-15T03:21:49;15.05;;;1.73;;
18443;SDS011;9350;53.176;8.194;2023-01-15T03:24:20;7.20;;;1.50;;
18443;SDS011;9350;53.176;8.194;2023-01-15T03:26:52;8.75;;;1.58;;
18443;SDS011;9350;53.176;8.194;2023-01-15T03:29:20;9.88;;;1.83;;
18443;SDS011;9350;53.176;8.194;2023-01-15T03:31:49;9.27;;;1.50;;
18443;SDS011;9350;53.176;8.194;2023-01-15T03:34:16;9.27;;;1.65;;
18443;SDS011;9350;53.176;8.194;2023-01-15T03:36:42;6.28;;;1.58;;
18443;SDS011;9350;53.176;8.194;2023-01-15T03:39:10;8.02;;;1.73;;
18443;SDS011;9350;53.176;8.194;2023-01-15T03:41:47;14.27;;;1.75;;
18443;SDS011;9350;53.176;8.194;2023-01-15T03:44:23;6.10;;;1.67;;
18443;SDS011;9350;53.176;8.194;2023-01-15T03:47:01;5.55;;;1.50;;
18443;SDS011;9350;53.176;8.194;2023-01-15T03:49:37;7.18;;;1.60;;
18443;SDS011;9350;53.176;8.194;2023-01-15T03:52:12;13.63;;;1.88;;
18443;SDS011;9350;53.176;8.194;2023-01-15T03:54:47;13.10;;;1.83;;
18443;SDS011;9350;53.176;8.194;2023-01-15T03:57:22;6.13;;;1.80;;
18443;SDS011;9350;53.176;8.194;2023-01-15T03:59:57;10.63;;;1.70;;
18443;SDS011;9350;53.176;8.194;2023-01-15T04:02:26;8.15;;;1.67;;
18443;SDS011;9350;53.176;8.194;2023-01-15T04:04:55;6.78;;;1.45;;
18443;SDS011;9350;53.176;8.194;2023-01-15T04:07:23;9.02;;;1.67;;
18443;SDS011;9350;53.176;8.194;2023-01-15T04:09:51;10.57;;;1.65;;
18443;SDS011;9350;53.176;8.194;2023-01-15T04:12:18;12.70;;;2.03;;
18443;SDS011;9350;53.176;8.194;2023-01-15T04:14:45;9.80;;;1.88;;
18443;SDS011;9350;53.176;8.194;2023-01-15T04:17:13;18.13;;;2.10;;
18443;SDS011;9350;53.176;8.194;2023-01-15T04:19:40;8.20;;;1.50;;
18443;SDS011;9350;53.176;8.194;2023-01-15T04:22:08;10.75;;;1.45;;
18443;SDS011;9350;53.176;8.194;2023-01-15T04:24:35;10.80;;;1.75;;
18443;SDS011;9350;53.176;8.194;2023-01-15T04:27:02;7.68;;;1.50;;
18443;SDS011;9350;53.176;8.194;2023-01-15T04:29:29;8.68;;;1.55;;
18443;SDS011;9350;53.176;8.194;2023-01-15T04:31:55;10.82;;;1.50;;
18443;SDS011;9350;53.176;8.194;2023-01-15T04:34:24;8.05;;;1.67;;
18443;SDS011;9350;53.176;8.194;2023-01-15T04:36:51;9.05;;;1.73;;
18443;SDS011;9350;53.176;8.194;2023-01-15T04:39:18;8.27;;;1.65;;
18443;SDS011;9350;53.176;8.194;2023-01-15T04:41:45;9.98;;;1.45;;
18443;SDS011;9350;53.176;8.194;2023-01-15T04:44:31;11.10;;;1.55;;
18443;SDS011;9350;53.176;8.194;2023-01-15T04:46:59;9.13;;;2.08;;
18443;SDS011;9350;53.176;8.194;2023-01-15T04:49:27;9.63;;;1.77;;
18443;SDS011;9350;53.176;8.194;2023-01-15T04:51:53;9.30;;;1.88;;
18443;SDS011;9350;53.176;8.194;2023-01-15T04:54:20;7.65;;;1.58;;
18443;SDS011;9350;53.176;8.194;2023-01-15T04:56:48;8.88;;;2.00;;
18443;SDS011;9350;53.176;8.194;2023-01-15T04:59:16;14.48;;;2.45;;
18443;SDS011;9350;53.176;8.194;2023-01-15T05:01:44;9.25;;;2.28;;
18443;SDS011;9350;53.176;8.194;2023-01-15T05:04:11;8.65;;;1.50;;
18443;SDS011;9350;53.176;8.194;2023-01-15T05:06:39;13.43;;;2.45;;
18443;SDS011;9350;53.176;8.194;2023-01-15T05:09:06;7.60;;;1.73;;
18443;SDS011;9350;53.176;8.194;2023-01-15T05:11:33;8.75;;;1.80;;
18443;SDS011;9350;53.176;8.194;2023-01-15T05:14:00;12.25;;;1.77;;
18443;SDS011;9350;53.176;8.194;2023-01-15T05:16:27;10.05;;;1.70;;
18443;SDS011;9350;53.176;8.194;2023-01-15T05:18:56;7.80;;;1.75;;
18443;SDS011;9350;53.176;8.194;2023-01-15T05:21:24;7.85;;;1.63;;
18443;SDS011;9350;53.176;8.194;2023-01-15T05:23:54;8.98;;;2.03;;
18443;SDS011;9350;53.176;8.194;2023-01-15T05:26:22;6.18;;;1.92;;
18443;SDS011;9350;53.176;8.194;2023-01-15T05:28:51;11.98;;;2.10;;
18443;SDS011;9350;53.176;8.194;2023-01-15T05:31:20;12.00;;;2.05;;
18443;SDS011;9350;53.176;8.194;2023-01-15T05:33:47;12.55;;;1.63;;
18443;SDS011;9350;53.176;8.194;2023-01-15T05:36:15;7.25;;;1.60;;
18443;SDS011;9350;53.176;8.194;2023-01-15T05:38:43;13.52;;;1.85;;
18443;SDS011;9350;53.176;8.194;2023-01-15T05:41:11;12.07;;;1.88;;
18443;SDS011;9350;53.176;8.194;2023-01-15T05:43:58;10.65;;;1.83;;
18443;SDS011;9350;53.176;8.194;2023-01-15T05:46:26;8.38;;;1.40;;
18443;SDS011;9350;53.176;8.194;2023-01-15T05:48:53;10.70;;;1.90;;
18443;SDS011;9350;53.176;8.194;2023-01-15T05:51:24;9.05;;;1.90;;
18443;SDS011;9350;53.176;8.194;2023-01-15T05:53:50;7.68;;;1.90;;
18443;SDS011;9350;53.176;8.194;2023-01-15T05:56:19;11.60;;;2.13;;
18443;SDS011;9350;53.176;8.194;2023-01-15T05:58:46;8.77;;;1.70;;
18443;SDS011;9350;53.176;8.194;2023-01-15T06:01:12;9.18;;;1.98;;
18443;SDS011;9350;53.176;8.194;2023-01-15T06:03:39;8.82;;;1.98;;
18443;SDS011;9350;53.176;8.194;2023-01-15T06:06:06;11.60;;;2.40;;
18443;SDS011;9350;53.176;8.194;2023-01-15T06:08:37;11.50;;;2.13;;
18443;SDS011;9350;53.176;8.194;2023-01-15T06:11:04;13.63;;;1.90;;
18443;SDS011;9350;53.176;8.194;2023-01-15T06:13:32;10.25;;;1.90;;
18443;SDS011;9350;53.176;8.194;2023-01-15T06:15:59;9.90;;;1.70;;
18443;SDS011;9350;53.176;8.194;2023-01-15T06:18:26;20.23;;;2.08;;
18443;SDS011;9350;53.176;8.194;2023-01-15T06:20:53;12.98;;;1.88;;
18443;SDS011;9350;53.176;8.194;2023-01-15T06:23:20;10.20;;;1.75;;
18443;SDS011;9350;53.176;8.194;2023-01-15T06:25:47;8.30;;;2.03;;
18443;SDS011;9350;53.176;8.194;2023-01-15T06:28:13;12.85;;;2.10;;
18443;SDS011;9350;53.176;8.194;2023-01-15T06:30:41;11.27;;;1.85;;
18443;SDS011;9350;53.176;8.194;2023-01-15T06:33:08;9.85;;;1.90;;
18443;SDS011;9350;53.176;8.194;2023-01-15T06:35:35;10.05;;;1.65;;
18443;SDS011;9350;53.176;8.194;2023-01-15T06:38:02;8.90;;;1.63;;
18443;SDS011;9350;53.176;8.194;2023-01-15T06:40:28;8.73;;;2.10;;
18443;SDS011;9350;53.176;8.194;2023-01-15T06:42:56;6.43;;;1.42;;
18443;SDS011;9350;53.176;8.194;2023-01-15T06:45:43;9.43;;;1.90;;
18443;SDS011;9350;53.176;8.194;2023-01-15T06:48:27;10.40;;;2.10;;
18443;SDS011;9350;53.176;8.194;2023-01-15T06:50:54;9.18;;;1.70;;
18443;SDS011;9350;53.176;8.194;2023-01-15T06:53:21;10.40;;;1.73;;
18443;SDS011;9350;53.176;8.194;2023-01-15T06:55:48;8.00;;;1.67;;
18443;SDS011;9350;53.176;8.194;2023-01-15T06:58:14;12.68;;;1.60;;
18443;SDS011;9350;53.176;8.194;2023-01-15T07:00:42;6.63;;;1.60;;
18443;SDS011;9350;53.176;8.194;2023-01-15T07:03:17;16.15;;;1.95;;
18443;SDS011;9350;53.176;8.194;2023-01-15T07:05:43;11.27;;;1.67;;
18443;SDS011;9350;53.176;8.194;2023-01-15T07:08:10;12.55;;;1.92;;
18443;SDS011;9350;53.176;8.194;2023-01-15T07:10:37;7.55;;;1.60;;
18443;SDS011;9350;53.176;8.194;2023-01-15T07:13:04;8.02;;;1.80;;
18443;SDS011;9350;53.176;8.194;2023-01-15T07:15:31;13.27;;;1.80;;
18443;SDS011;9350;53.176;8.194;2023-01-15T07:18:00;13.18;;;2.00;;
18443;SDS011;9350;53.176;8.194;2023-01-15T07:20:28;11.80;;;1.60;;
18443;SDS011;9350;53.176;8.194;2023-01-15T07:22:55;9.02;;;1.75;;
18443;SDS011;9350;53.176;8.194;2023-01-15T07:25:21;13.98;;;1.55;;
18443;SDS011;9350;53.176;8.194;2023-01-15T07:27:48;6.85;;;1.60;;
18443;SDS011;9350;53.176;8.194;2023-01-15T07:30:15;9.38;;;1.60;;
18443;SDS011;9350;53.176;8.194;2023-01-15T07:32:42;13.27;;;1.77;;
18443;SDS011;9350;53.176;8.194;2023-01-15T07:35:10;11.35;;;1.65;;
18443;SDS011;9350;53.176;8.194;2023-01-15T07:37:37;10.02;;;1.50;;
18443;SDS011;9350;53.176;8.194;2023-01-15T07:40:04;10.60;;;1.67;;
18443;SDS011;9350;53.176;8.194;2023-01-15T07:42:31;8.82;;;1.65;;
18443;SDS011;9350;53.176;8.194;2023-01-15T07:45:15;11.30;;;1.60;;
18443;SDS011;9350;53.176;8.194;2023-01-15T07:48:00;10.70;;;1.83;;
18443;SDS011;9350;53.176;8.194;2023-01-15T07:50:45;8.13;;;1.88;;
18443;SDS011;9350;53.176;8.194;2023-01-15T07:53:12;8.80;;;1.85;;
18443;SDS011;9350;53.176;8.194;2023-01-15T07:55:38;9.95;;;1.77;;
18443;SDS011;9350;53.176;8.194;2023-01-15T07:58:05;6.65;;;1.75;;
18443;SDS011;9350;53.176;8.194;2023-01-15T08:00:32;9.43;;;1.73;;
18443;SDS011;9350;53.176;8.194;2023-01-15T08:02:59;9.48;;;1.90;;
18443;SDS011;9350;53.176;8.194;2023-01-15T08:05:27;7.05;;;1.58;;
18443;SDS011;9350;53.176;8.194;2023-01-15T08:07:55;7.80;;;1.35;;
18443;SDS011;9350;53.176;8.194;2023-01-15T08:10:22;8.80;;;1.70;;
18443;SDS011;9350;53.176;8.194;2023-01-15T08:12:50;7.97;;;1.60;;
18443;SDS011;9350;53.176;8.194;2023-01-15T08:15:37;7.10;;;1.65;;
18443;SDS011;9350;53.176;8.194;2023-01-15T08:18:06;7.82;;;1.55;;
18443;SDS011;9350;53.176;8.194;2023-01-15T08:20:33;7.20;;;1.48;;
18443;SDS011;9350;53.176;8.194;2023-01-15T08:23:02;8.73;;;1.88;;
18443;SDS011;9350;53.176;8.194;2023-01-15T08:25:29;11.45;;;1.95;;
18443;SDS011;9350;53.176;8.194;2023-01-15T08:27:59;8.77;;;1.33;;
18443;SDS011;9350;53.176;8.194;2023-01-15T08:30:26;4.30;;;1.52;;
18443;SDS011;9350;53.176;8.194;2023-01-15T08:32:57;7.55;;;1.30;;
18443;SDS011;9350;53.176;8.194;2023-01-15T08:35:26;5.32;;;1.30;;
18443;SDS011;9350;53.176;8.194;2023-01-15T08:37:52;9.57;;;1.60;;
18443;SDS011;9350;53.176;8.194;2023-01-15T08:40:21;13.13;;;1.67;;
18443;SDS011;9350;53.176;8.194;2023-01-15T08:42:47;11.52;;;1.65;;
18443;SDS011;9350;53.176;8.194;2023-01-15T08:45:14;5.72;;;1.55;;
18443;SDS011;9350;53.176;8.194;2023-01-15T08:47:41;6.35;;;1.85;;
18443;SDS011;9350;53.176;8.194;2023-01-15T08:50:08;7.53;;;2.75;;
18443;SDS011;9350;53.176;8.194;2023-01-15T08:52:35;5.40;;;1.27;;
18443;SDS011;9350;53.176;8.194;2023-01-15T08:55:03;7.75;;;1.70;;
18443;SDS011;9350;53.176;8.194;2023-01-15T08:57:32;7.43;;;1.60;;
18443;SDS011;9350;53.176;8.194;2023-01-15T08:59:59;7.10;;;1.40;;
18443;SDS011;9350;53.176;8.194;2023-01-15T09:02:26;4.13;;;1.17;;
18443;SDS011;9350;53.176;8.194;2023-01-15T09:04:53;4.68;;;1.30;;
18443;SDS011;9350;53.176;8.194;2023-01-15T09:07:20;8.57;;;1.70;;
18443;SDS011;9350;53.176;8.194;2023-01-15T09:09:47;8.68;;;1.80;;
18443;SDS011;9350;53.176;8.194;2023-01-15T09:12:14;7.60;;;1.60;;
18443;SDS011;9350;53.176;8.194;2023-01-15T09:14:42;9.40;;;1.60;;
18443;SDS011;9350;53.176;8.194;2023-01-15T09:17:09;8.73;;;1.50;;
18443;SDS011;9350;53.176;8.194;2023-01-15T09:19:35;7.80;;;1.58;;
18443;SDS011;9350;53.176;8.194;2023-01-15T09:22:02;8.20;;;1.70;;
18443;SDS011;9350;53.176;8.194;2023-01-15T09:24:29;6.72;;;1.50;;
18443;SDS011;9350;53.176;8.194;2023-01-15T09:26:56;10.27;;;1.70;;
18443;SDS011;9350;53.176;8.194;2023-01-15T09:29:22;7.03;;;1.58;;
18443;SDS011;9350;53.176;8.194;2023-01-15T09:31:50;10.45;;;1.70;;
18443;SDS011;9350;53.176;8.194;2023-01-15T09:34:17;9.18;;;1.48;;
18443;SDS011;9350;53.176;8.194;2023-01-15T09:36:44;5.53;;;1.40;;
18443;SDS011;9350;53.176;8.194;2023-01-15T09:39:11;12.50;;;1.80;;
18443;SDS011;9350;53.176;8.194;2023-01-15T09:41:46;10.30;;;1.55;;
18443;SDS011;9350;53.176;8.194;2023-01-15T09:44:34;5.97;;;1.38;;
18443;SDS011;9350;53.176;8.194;2023-01-15T09:47:14;11.80;;;1.85;;
18443;SDS011;9350;53.176;8.194;2023-01-15T09:49:50;10.05;;;1.95;;
18443;SDS011;9350;53.176;8.194;2023-01-15T09:52:32;7.25;;;1.23;;
18443;SDS011;9350;53.176;8.194;2023-01-15T09:55:12;4.88;;;1.40;;
18443;SDS011;9350;53.176;8.194;2023-01-15T09:57:40;7.20;;;1.40;;
18443;SDS011;9350;53.176;8.194;2023-01-15T10:00:11;4.47;;;1.30;;
18443;SDS011;9350;53.176;8.194;2023-01-15T10:02:45;10.40;;;1.63;;
18443;SDS011;9350;53.176;8.194;2023-01-15T10:05:16;8.15;;;1.77;;
18443;SDS011;9350;53.176;8.194;2023-01-15T10:07:50;7.32;;;1.17;;
18443;SDS011;9350;53.176;8.194;2023-01-15T10:10:23;11.20;;;1.60;;
18443;SDS011;9350;53.176;8.194;2023-01-15T10:12:59;13.02;;;2.00;;
18443;SDS011;9350;53.176;8.194;2023-01-15T10:15:34;9.30;;;1.92;;
18443;SDS011;9350;53.176;8.194;2023-01-15T10:18:06;7.10;;;1.73;;
18443;SDS011;9350;53.176;8.194;2023-01-15T10:20:47;5.82;;;1.40;;
18443;SDS011;9350;53.176;8.194;2023-01-15T10:23:34;5.80;;;2.42;;
18443;SDS011;9350;53.176;8.194;2023-01-15T10:26:07;4.40;;;1.25;;
18443;SDS011;9350;53.176;8.194;2023-01-15T10:31:33;2.15;;;0.60;;
18443;SDS011;9350;53.176;8.194;2023-01-15T10:34:29;0.73;;;0.50;;
18443;SDS011;9350;53.176;8.194;2023-01-15T10:37:11;1.30;;;0.52;;
18443;SDS011;9350;53.176;8.194;2023-01-15T10:39:44;0.77;;;0.60;;
18443;SDS011;9350;53.176;8.194;2023-01-15T10:42:27;1.27;;;0.50;;
18443;SDS011;9350;53.176;8.194;2023-01-15T10:45:06;1.65;;;0.60;;
18443;SDS011;9350;53.176;8.194;2023-01-15T10:47:40;0.55;;;0.55;;
18443;SDS011;9350;53.176;8.194;2023-01-15T10:50:14;0.75;;;0.63;;
18443;SDS011;9350;53.176;8.194;2023-01-15T10:52:43;2.60;;;0.82;;
18443;SDS011;9350;53.176;8.194;2023-01-15T10:55:15;0.60;;;0.60;;
18443;SDS011;9350;53.176;8.194;2023-01-15T10:57:48;2.35;;;1.00;;
18443;SDS011;9350;53.176;8.194;2023-01-15T11:00:20;1.38;;;0.73;;
18443;SDS011;9350;53.176;8.194;2023-01-15T11:02:49;1.25;;;0.70;;
18443;SDS011;9350;53.176;8.194;2023-01-15T11:05:26;3.15;;;0.80;;
18443;SDS011;9350;53.176;8.194;2023-01-15T11:07:54;3.00;;;1.08;;
18443;SDS011;9350;53.176;8.194;2023-01-15T11:10:22;4.07;;;1.23;;
18443;SDS011;9350;53.176;8.194;2023-01-15T11:12:50;3.95;;;0.88;;
18443;SDS011;9350;53.176;8.194;2023-01-15T11:15:36;4.00;;;0.70;;
18443;SDS011;9350;53.176;8.194;2023-01-15T11:18:22;2.72;;;0.90;;
18443;SDS011;9350;53.176;8.194;2023-01-15T11:21:11;2.65;;;0.93;;
18443;SDS011;9350;53.176;8.194;2023-01-15T11:23:40;1.25;;;0.82;;
18443;SDS011;9350;53.176;8.194;2023-01-15T11:26:07;3.80;;;1.00;;
18443;SDS011;9350;53.176;8.194;2023-01-15T11:28:41;1.23;;;0.85;;
18443;SDS011;9350;53.176;8.194;2023-01-15T11:31:10;5.57;;;1.35;;
18443;SDS011;9350;53.176;8.194;2023-01-15T11:33:38;5.78;;;1.15;;
18443;SDS011;9350;53.176;8.194;2023-01-15T11:36:06;6.32;;;1.42;;
18443;SDS011;9350;53.176;8.194;2023-01-15T11:38:47;5.28;;;1.13;;
18443;SDS011;9350;53.176;8.194;2023-01-15T11:41:17;4.35;;;1.73;;
18443;SDS011;9350;53.176;8.194;2023-01-15T11:43:52;2.83;;;1.42;;
18443;SDS011;9350;53.176;8.194;2023-01-15T11:46:39;2.65;;;1.20;;
18443;SDS011;9350;53.176;8.194;2023-01-15T11:49:24;4.85;;;1.35;;
18443;SDS011;9350;53.176;8.194;2023-01-15T11:52:09;6.00;;;1.63;;
18443;SDS011;9350;53.176;8.194;2023-01-15T11:54:40;5.53;;;1.80;;
18443;SDS011;9350;53.176;8.194;2023-01-15T11:57:09;3.85;;;1.20;;
18443;SDS011;9350;53.176;8.194;2023-01-15T11:59:37;5.10;;;1.40;;
18443;SDS011;9350;53.176;8.194;2023-01-15T12:02:09;5.32;;;1.45;;
18443;SDS011;9350;53.176;8.194;2023-01-15T12:04:45;8.35;;;1.20;;
18443;SDS011;9350;53.176;8.194;2023-01-15T12:07:17;4.80;;;1.40;;
18443;SDS011;9350;53.176;8.194;2023-01-15T12:12:46;3.22;;;1.17;;
18443;SDS011;9350;53.176;8.194;2023-01-15T12:15:32;11.55;;;2.13;;
18443;SDS011;9350;53.176;8.194;2023-01-15T12:18:13;8.18;;;1.50;;
18443;SDS011;9350;53.176;8.194;2023-01-15T12:21:01;6.88;;;1.40;;
18443;SDS011;9350;53.176;8.194;2023-01-15T12:23:33;5.97;;;1.33;;
18443;SDS011;9350;53.176;8.194;2023-01-15T12:26:14;12.32;;;1.60;;
18443;SDS011;9350;53.176;8.194;2023-01-15T12:28:50;7.35;;;1.85;;
18443;SDS011;9350;53.176;8.194;2023-01-15T12:31:23;5.18;;;1.40;;
18443;SDS011;9350;53.176;8.194;2023-01-15T12:33:55;5.07;;;1.33;;
18443;SDS011;9350;53.176;8.194;2023-01-15T12:36:25;5.63;;;1.70;;
18443;SDS011;9350;53.176;8.194;2023-01-15T12:38:57;5.25;;;1.30;;
18443;SDS011;9350;53.176;8.194;2023-01-15T12:41:26;8.90;;;1.52;;
18443;SDS011;9350;53.176;8.194;2023-01-15T12:44:11;5.80;;;1.20;;
18443;SDS011;9350;53.176;8.194;2023-01-15T12:46:59;7.35;;;1.63;;
18443;SDS011;9350;53.176;8.194;2023-01-15T12:49:29;7.97;;;1.60;;
18443;SDS011;9350;53.176;8.194;2023-01-15T12:52:01;8.43;;;1.55;;
18443;SDS011;9350;53.176;8.194;2023-01-15T12:54:33;13.20;;;1.98;;
18443;SDS011;9350;53.176;8.194;2023-01-15T12:57:05;5.60;;;1.45;;
18443;SDS011;9350;53.176;8.194;2023-01-15T12:59:40;4.57;;;1.60;;
18443;SDS011;9350;53.176;8.194;2023-01-15T13:02:16;7.63;;;1.63;;
18443;SDS011;9350;53.176;8.194;2023-01-15T13:04:47;12.07;;;1.70;;
18443;SDS011;9350;53.176;8.194;2023-01-15T13:07:21;8.98;;;1.77;;
18443;SDS011;9350;53.176;8.194;2023-01-15T13:09:55;5.22;;;1.60;;
18443;SDS011;9350;53.176;8.194;2023-01-15T13:12:32;7.05;;;1.30;;
18443;SDS011;9350;53.176;8.194;2023-01-15T13:14:59;6.72;;;1.33;;
18443;SDS011;9350;53.176;8.194;2023-01-15T13:17:28;7.55;;;1.73;;
18443;SDS011;9350;53.176;8.194;2023-01-15T13:20:11;10.65;;;2.03;;
18443;SDS011;9350;53.176;8.194;2023-01-15T13:22:51;8.77;;;1.80;;
18443;SDS011;9350;53.176;8.194;2023-01-15T13:25:27;14.25;;;2.97;;
18443;SDS011;9350;53.176;8.194;2023-01-15T13:28:19;9.90;;;1.77;;
18443;SDS011;9350;53.176;8.194;2023-01-15T13:30:55;11.68;;;1.77;;
18443;SDS011;9350;53.176;8.194;2023-01-15T13:33:32;7.70;;;1.95;;
18443;SDS011;9350;53.176;8.194;2023-01-15T13:36:05;6.97;;;1.65;;
18443;SDS011;9350;53.176;8.194;2023-01-15T13:38:40;6.20;;;1.40;;
18443;SDS011;9350;53.176;8.194;2023-01-15T13:41:08;8.88;;;1.77;;
18443;SDS011;9350;53.176;8.194;2023-01-15T13:43:39;7.47;;;1.50;;
18443;SDS011;9350;53.176;8.194;2023-01-15T13:46:08;9.20;;;1.92;;
18443;SDS011;9350;53.176;8.194;2023-01-15T13:48:39;10.75;;;1.92;;
18443;SDS011;9350;53.176;8.194;2023-01-15T13:51:16;6.35;;;1.67;;
18443;SDS011;9350;53.176;8.194;2023-01-15T13:53:50;7.22;;;1.60;;
18443;SDS011;9350;53.176;8.194;2023-01-15T13:56:24;7.63;;;1.80;;
18443;SDS011;9350;53.176;8.194;2023-01-15T13:58:54;7.75;;;1.25;;
18443;SDS011;9350;53.176;8.194;2023-01-15T14:01:22;10.75;;;1.40;;
18443;SDS011;9350;53.176;8.194;2023-01-15T14:03:56;6.15;;;1.20;;
18443;SDS011;9350;53.176;8.194;2023-01-15T14:06:40;5.60;;;1.15;;
18443;SDS011;9350;53.176;8.194;2023-01-15T14:09:09;5.40;;;1.88;;
18443;SDS011;9350;53.176;8.194;2023-01-15T14:11:37;3.97;;;1.45;;
18443;SDS011;9350;53.176;8.194;2023-01-15T14:17:10;5.15;;;1.50;;
18443;SDS011;9350;53.176;8.194;2023-01-15T14:19:56;4.07;;;1.55;;
18443;SDS011;9350;53.176;8.194;2023-01-15T14:22:36;9.13;;;1.50;;
18443;SDS011;9350;53.176;8.194;2023-01-15T14:25:17;3.67;;;1.25;;
18443;SDS011;9350;53.176;8.194;2023-01-15T14:28:02;6.05;;;1.50;;
18443;SDS011;9350;53.176;8.194;2023-01-15T14:33:32;2.83;;;1.20;;
18443;SDS011;9350;53.176;8.194;2023-01-15T14:36:13;6.55;;;1.58;;
18443;SDS011;9350;53.176;8.194;2023-01-15T14:38:44;7.82;;;1.70;;
18443;SDS011;9350;53.176;8.194;2023-01-15T14:41:14;5.35;;;1.40;;
18443;SDS011;9350;53.176;8.194;2023-01-15T14:43:46;6.40;;;1.40;;
18443;SDS011;9350;53.176;8.194;2023-01-15T14:46:19;4.40;;;1.48;;
18443;SDS011;9350;53.176;8.194;2023-01-15T14:48:50;5.93;;;1.50;;
18443;SDS011;9350;53.176;8.194;2023-01-15T14:51:17;6.65;;;1.52;;
18443;SDS011;9350;53.176;8.194;2023-01-15T14:53:50;10.52;;;1.70;;
18443;SDS011;9350;53.176;8.194;2023-01-15T14:56:20;8.27;;;1.63;;
18443;SDS011;9350;53.176;8.194;2023-01-15T14:58:52;6.32;;;1.40;;
18443;SDS011;9350;53.176;8.194;2023-01-15T15:01:42;4.03;;;1.00;;
18443;SDS011;9350;53.176;8.194;2023-01-15T15:04:18;3.40;;;1.10;;
18443;SDS011;9350;53.176;8.194;2023-01-15T15:06:49;1.15;;;0.80;;
18443;SDS011;9350;53.176;8.194;2023-01-15T15:09:24;5.85;;;0.80;;
18443;SDS011;9350;53.176;8.194;2023-01-15T15:11:56;3.80;;;0.90;;
18443;SDS011;9350;53.176;8.194;2023-01-15T15:14:44;0.95;;;0.85;;
18443;SDS011;9350;53.176;8.194;2023-01-15T15:17:18;2.47;;;0.50;;
18443;SDS011;9350;53.176;8.194;2023-01-15T15:19:59;1.45;;;0.65;;
18443;SDS011;9350;53.176;8.194;2023-01-15T15:22:37;1.38;;;0.55;;
18443;SDS011;9350;53.176;8.194;2023-01-15T15:25:07;0.57;;;0.52;;
18443;SDS011;9350;53.176;8.194;2023-01-15T15:27:37;0.60;;;0.60;;
18443;SDS011;9350;53.176;8.194;2023-01-15T15:30:04;0.93;;;0.80;;
18443;SDS011;9350;53.176;8.194;2023-01-15T15:32:34;2.03;;;0.60;;
18443;SDS011;9350;53.176;8.194;2023-01-15T15:35:04;0.60;;;0.60;;